sensor_id;sensor_type;location;lat;lon;timestamp;P1;durP1;ratioP1;P2;durP2;ratioP2
63259;SDS011;49390;51.380;0.098;2022-10-26T00:01:22;19.00;;;4.35;;
63259;SDS011;49390;51.380;0.098;2022-10-26T00:03:50;13.27;;;4.07;;
63259;SDS011;49390;51.380;0.098;2022-10-26T00:06:21;15.40;;;4.03;;
63259;SDS011;49390;51.380;0.098;2022-10-26T00:08:52;11.20;;;4.05;;
63259;SDS011;49390;51.380;0.098;2022-10-26T00:11:21;20.10;;;4.43;;
63259;SDS011;49390;51.380;0.098;2022-10-26T00:13:50;13.43;;;4.10;;
63259;SDS011;49390;51.380;0.098;2022-10-26T00:16:21;13.63;;;4.13;;
63259;SDS011;49390;51.380;0.098;2022-10-26T00:18:51;15.15;;;3.45;;
63259;SDS011;49390;51.380;0.098;2022-10-26T00:21:19;14.48;;;4.13;;
63259;SDS011;49390;51.380;0.098;2022-10-26T00:23:47;18.58;;;4.70;;
63259;SDS011;49390;51.380;0.098;2022-10-26T00:26:15;14.73;;;4.40;;
63259;SDS011;49390;51.380;0.098;2022-10-26T00:28:43;16.33;;;4.38;;
63259;SDS011;49390;51.380;0.098;2022-10-26T00:31:12;14.05;;;3.78;;
63259;SDS011;49390;51.380;0.098;2022-10-26T00:33:41;10.98;;;3.47;;
63259;SDS011;49390;51.380;0.098;2022-10-26T00:36:09;16.83;;;4.55;;
63259;SDS011;49390;51.380;0.098;2022-10-26T00:38:40;13.90;;;4.47;;
63259;SDS011;49390;51.380;0.098;2022-10-26T00:41:13;13.63;;;4.63;;
63259;SDS011;49390;51.380;0.098;2022-10-26T00:43:42;11.05;;;3.70;;
63259;SDS011;49390;51.380;0.098;2022-10-26T00:46:30;17.75;;;5.07;;
63259;SDS011;49390;51.380;0.098;2022-10-26T00:49:07;13.80;;;3.92;;
63259;SDS011;49390;51.380;0.098;2022-10-26T00:51:41;13.93;;;4.93;;
63259;SDS011;49390;51.380;0.098;2022-10-26T00:54:14;15.43;;;4.15;;
63259;SDS011;49390;51.380;0.098;2022-10-26T00:56:46;10.70;;;3.78;;
63259;SDS011;49390;51.380;0.098;2022-10-26T00:59:18;11.52;;;4.07;;
63259;SDS011;49390;51.380;0.098;2022-10-26T01:01:49;18.00;;;4.80;;
63259;SDS011;49390;51.380;0.098;2022-10-26T01:04:18;15.70;;;3.90;;
63259;SDS011;49390;51.380;0.098;2022-10-26T01:06:49;11.75;;;3.83;;
63259;SDS011;49390;51.380;0.098;2022-10-26T01:09:19;9.82;;;4.40;;
63259;SDS011;49390;51.380;0.098;2022-10-26T01:11:47;20.58;;;4.28;;
63259;SDS011;49390;51.380;0.098;2022-10-26T01:14:15;12.80;;;4.38;;
63259;SDS011;49390;51.380;0.098;2022-10-26T01:22:06;13.32;;;4.22;;
63259;SDS011;49390;51.380;0.098;2022-10-26T01:31:33;11.15;;;4.47;;
63259;SDS011;49390;51.380;0.098;2022-10-26T01:34:14;11.82;;;3.70;;
63259;SDS011;49390;51.380;0.098;2022-10-26T01:36:52;15.63;;;4.18;;
63259;SDS011;49390;51.380;0.098;2022-10-26T01:42:07;14.40;;;4.25;;
63259;SDS011;49390;51.380;0.098;2022-10-26T01:44:42;13.40;;;4.10;;
63259;SDS011;49390;51.380;0.098;2022-10-26T01:47:15;14.15;;;4.35;;
63259;SDS011;49390;51.380;0.098;2022-10-26T01:49:48;19.90;;;4.80;;
63259;SDS011;49390;51.380;0.098;2022-10-26T01:52:22;13.52;;;4.82;;
63259;SDS011;49390;51.380;0.098;2022-10-26T01:54:58;15.82;;;4.35;;
63259;SDS011;49390;51.380;0.098;2022-10-26T01:57:27;12.25;;;4.50;;
63259;SDS011;49390;51.380;0.098;2022-10-26T02:00:10;11.35;;;3.92;;
63259;SDS011;49390;51.380;0.098;2022-10-26T02:11:31;15.25;;;4.20;;
63259;SDS011;49390;51.380;0.098;2022-10-26T02:14:20;11.23;;;4.43;;
63259;SDS011;49390;51.380;0.098;2022-10-26T02:16:57;13.02;;;4.07;;
63259;SDS011;49390;51.380;0.098;2022-10-26T02:19:37;12.20;;;4.20;;
63259;SDS011;49390;51.380;0.098;2022-10-26T02:22:23;14.90;;;4.47;;
63259;SDS011;49390;51.380;0.098;2022-10-26T02:24:53;23.02;;;4.60;;
63259;SDS011;49390;51.380;0.098;2022-10-26T02:27:24;20.35;;;5.13;;
63259;SDS011;49390;51.380;0.098;2022-10-26T02:29:55;13.85;;;4.47;;
63259;SDS011;49390;51.380;0.098;2022-10-26T02:32:26;19.08;;;5.13;;
63259;SDS011;49390;51.380;0.098;2022-10-26T02:34:58;11.43;;;4.13;;
63259;SDS011;49390;51.380;0.098;2022-10-26T02:37:28;16.15;;;4.70;;
63259;SDS011;49390;51.380;0.098;2022-10-26T02:39:58;15.50;;;4.80;;
63259;SDS011;49390;51.380;0.098;2022-10-26T02:42:29;11.52;;;4.20;;
63259;SDS011;49390;51.380;0.098;2022-10-26T02:45:00;19.25;;;4.70;;
63259;SDS011;49390;51.380;0.098;2022-10-26T02:47:33;12.48;;;4.80;;
63259;SDS011;49390;51.380;0.098;2022-10-26T02:50:02;17.52;;;4.65;;
63259;SDS011;49390;51.380;0.098;2022-10-26T02:52:37;18.25;;;4.80;;
63259;SDS011;49390;51.380;0.098;2022-10-26T02:55:26;15.57;;;4.80;;
63259;SDS011;49390;51.380;0.098;2022-10-26T02:57:58;15.93;;;4.25;;
63259;SDS011;49390;51.380;0.098;2022-10-26T03:00:30;15.07;;;4.78;;
63259;SDS011;49390;51.380;0.098;2022-10-26T03:02:59;16.42;;;4.30;;
63259;SDS011;49390;51.380;0.098;2022-10-26T03:05:31;13.70;;;4.55;;
63259;SDS011;49390;51.380;0.098;2022-10-26T03:07:59;21.35;;;5.10;;
63259;SDS011;49390;51.380;0.098;2022-10-26T03:10:28;15.55;;;4.72;;
63259;SDS011;49390;51.380;0.098;2022-10-26T03:12:59;15.75;;;4.82;;
63259;SDS011;49390;51.380;0.098;2022-10-26T03:15:27;16.27;;;4.35;;
63259;SDS011;49390;51.380;0.098;2022-10-26T03:17:57;18.58;;;4.80;;
63259;SDS011;49390;51.380;0.098;2022-10-26T03:20:27;22.00;;;5.53;;
63259;SDS011;49390;51.380;0.098;2022-10-26T03:22:55;20.73;;;5.45;;
63259;SDS011;49390;51.380;0.098;2022-10-26T03:28:01;16.67;;;5.03;;
63259;SDS011;49390;51.380;0.098;2022-10-26T03:30:30;15.52;;;5.10;;
63259;SDS011;49390;51.380;0.098;2022-10-26T03:32:58;16.65;;;5.70;;
63259;SDS011;49390;51.380;0.098;2022-10-26T03:35:26;18.92;;;5.10;;
63259;SDS011;49390;51.380;0.098;2022-10-26T03:37:54;18.75;;;6.53;;
63259;SDS011;49390;51.380;0.098;2022-10-26T03:40:23;16.45;;;5.40;;
63259;SDS011;49390;51.380;0.098;2022-10-26T03:42:53;15.82;;;5.15;;
63259;SDS011;49390;51.380;0.098;2022-10-26T03:45:21;19.27;;;5.82;;
63259;SDS011;49390;51.380;0.098;2022-10-26T03:47:50;17.95;;;5.22;;
63259;SDS011;49390;51.380;0.098;2022-10-26T03:50:19;17.30;;;5.72;;
63259;SDS011;49390;51.380;0.098;2022-10-26T03:52:48;13.95;;;5.03;;
63259;SDS011;49390;51.380;0.098;2022-10-26T03:55:17;15.95;;;5.85;;
63259;SDS011;49390;51.380;0.098;2022-10-26T03:57:46;17.48;;;6.22;;
63259;SDS011;49390;51.380;0.098;2022-10-26T04:00:15;16.98;;;5.60;;
63259;SDS011;49390;51.380;0.098;2022-10-26T04:02:45;15.57;;;5.43;;
63259;SDS011;49390;51.380;0.098;2022-10-26T04:05:20;19.83;;;5.53;;
63259;SDS011;49390;51.380;0.098;2022-10-26T04:07:55;15.98;;;5.90;;
63259;SDS011;49390;51.380;0.098;2022-10-26T04:10:25;17.33;;;6.07;;
63259;SDS011;49390;51.380;0.098;2022-10-26T04:12:54;20.08;;;5.65;;
63259;SDS011;49390;51.380;0.098;2022-10-26T04:15:22;14.57;;;5.88;;
63259;SDS011;49390;51.380;0.098;2022-10-26T04:17:54;16.60;;;5.70;;
63259;SDS011;49390;51.380;0.098;2022-10-26T04:20:23;18.67;;;6.35;;
63259;SDS011;49390;51.380;0.098;2022-10-26T04:25:30;12.30;;;5.20;;
63259;SDS011;49390;51.380;0.098;2022-10-26T04:28:00;18.65;;;5.75;;
63259;SDS011;49390;51.380;0.098;2022-10-26T04:30:31;16.40;;;6.55;;
63259;SDS011;49390;51.380;0.098;2022-10-26T04:32:59;18.13;;;5.43;;
63259;SDS011;49390;51.380;0.098;2022-10-26T04:35:28;20.67;;;5.53;;
63259;SDS011;49390;51.380;0.098;2022-10-26T04:38:00;16.92;;;5.72;;
63259;SDS011;49390;51.380;0.098;2022-10-26T04:40:30;16.50;;;6.65;;
63259;SDS011;49390;51.380;0.098;2022-10-26T04:43:00;17.08;;;5.45;;
63259;SDS011;49390;51.380;0.098;2022-10-26T04:45:28;20.85;;;5.97;;
63259;SDS011;49390;51.380;0.098;2022-10-26T04:48:05;21.58;;;6.13;;
63259;SDS011;49390;51.380;0.098;2022-10-26T04:50:34;18.40;;;5.95;;
63259;SDS011;49390;51.380;0.098;2022-10-26T04:53:05;17.67;;;5.68;;
63259;SDS011;49390;51.380;0.098;2022-10-26T04:55:34;18.20;;;5.80;;
63259;SDS011;49390;51.380;0.098;2022-10-26T04:58:02;18.08;;;5.35;;
63259;SDS011;49390;51.380;0.098;2022-10-26T05:00:30;19.17;;;5.53;;
63259;SDS011;49390;51.380;0.098;2022-10-26T05:03:03;19.70;;;5.50;;
63259;SDS011;49390;51.380;0.098;2022-10-26T05:05:33;20.77;;;6.55;;
63259;SDS011;49390;51.380;0.098;2022-10-26T05:08:02;18.23;;;5.22;;
63259;SDS011;49390;51.380;0.098;2022-10-26T05:10:31;13.05;;;5.00;;
63259;SDS011;49390;51.380;0.098;2022-10-26T05:12:59;16.48;;;5.18;;
63259;SDS011;49390;51.380;0.098;2022-10-26T05:15:28;15.18;;;5.05;;
63259;SDS011;49390;51.380;0.098;2022-10-26T05:17:58;15.20;;;5.20;;
63259;SDS011;49390;51.380;0.098;2022-10-26T05:20:30;19.35;;;5.40;;
63259;SDS011;49390;51.380;0.098;2022-10-26T05:23:01;23.90;;;6.20;;
63259;SDS011;49390;51.380;0.098;2022-10-26T05:25:32;12.70;;;4.68;;
63259;SDS011;49390;51.380;0.098;2022-10-26T05:28:03;18.35;;;5.82;;
63259;SDS011;49390;51.380;0.098;2022-10-26T05:30:32;19.88;;;5.30;;
63259;SDS011;49390;51.380;0.098;2022-10-26T05:33:01;20.23;;;5.32;;
63259;SDS011;49390;51.380;0.098;2022-10-26T05:35:32;17.90;;;4.95;;
63259;SDS011;49390;51.380;0.098;2022-10-26T05:38:07;17.70;;;4.80;;
63259;SDS011;49390;51.380;0.098;2022-10-26T05:40:36;13.63;;;4.75;;
63259;SDS011;49390;51.380;0.098;2022-10-26T05:43:04;19.13;;;5.53;;
63259;SDS011;49390;51.380;0.098;2022-10-26T05:45:35;18.05;;;4.80;;
63259;SDS011;49390;51.380;0.098;2022-10-26T05:50:16;16.55;;;4.72;;
63259;SDS011;49390;51.380;0.098;2022-10-26T05:52:45;11.57;;;3.92;;
63259;SDS011;49390;51.380;0.098;2022-10-26T05:55:16;12.88;;;5.03;;
63259;SDS011;49390;51.380;0.098;2022-10-26T05:57:44;15.68;;;4.97;;
63259;SDS011;49390;51.380;0.098;2022-10-26T06:00:15;12.95;;;4.30;;
63259;SDS011;49390;51.380;0.098;2022-10-26T06:02:54;13.07;;;4.18;;
63259;SDS011;49390;51.380;0.098;2022-10-26T06:05:26;14.90;;;4.30;;
63259;SDS011;49390;51.380;0.098;2022-10-26T06:07:57;12.35;;;4.10;;
63259;SDS011;49390;51.380;0.098;2022-10-26T06:10:25;12.55;;;4.43;;
63259;SDS011;49390;51.380;0.098;2022-10-26T06:12:54;17.55;;;5.05;;
63259;SDS011;49390;51.380;0.098;2022-10-26T06:15:22;16.23;;;4.35;;
63259;SDS011;49390;51.380;0.098;2022-10-26T06:17:57;14.82;;;4.20;;
63259;SDS011;49390;51.380;0.098;2022-10-26T06:29:23;18.75;;;4.10;;
63259;SDS011;49390;51.380;0.098;2022-10-26T06:32:16;15.60;;;4.95;;
63259;SDS011;49390;51.380;0.098;2022-10-26T06:34:45;20.55;;;4.57;;
63259;SDS011;49390;51.380;0.098;2022-10-26T06:37:19;13.23;;;5.32;;
63259;SDS011;49390;51.380;0.098;2022-10-26T06:39:48;17.33;;;4.70;;
63259;SDS011;49390;51.380;0.098;2022-10-26T06:42:21;19.65;;;4.70;;
63259;SDS011;49390;51.380;0.098;2022-10-26T06:44:49;16.88;;;4.68;;
63259;SDS011;49390;51.380;0.098;2022-10-26T06:47:20;10.85;;;3.67;;
63259;SDS011;49390;51.380;0.098;2022-10-26T06:50:03;13.68;;;4.10;;
63259;SDS011;49390;51.380;0.098;2022-10-26T06:52:54;17.05;;;4.25;;
63259;SDS011;49390;51.380;0.098;2022-10-26T06:55:36;13.23;;;3.70;;
63259;SDS011;49390;51.380;0.098;2022-10-26T06:58:10;20.77;;;5.47;;
63259;SDS011;49390;51.380;0.098;2022-10-26T07:00:43;17.52;;;4.18;;
63259;SDS011;49390;51.380;0.098;2022-10-26T07:03:12;17.77;;;4.45;;
63259;SDS011;49390;51.380;0.098;2022-10-26T07:05:42;11.18;;;3.58;;
63259;SDS011;49390;51.380;0.098;2022-10-26T07:08:11;17.05;;;4.00;;
63259;SDS011;49390;51.380;0.098;2022-10-26T07:10:40;15.40;;;3.47;;
63259;SDS011;49390;51.380;0.098;2022-10-26T07:13:09;13.30;;;4.22;;
63259;SDS011;49390;51.380;0.098;2022-10-26T07:15:39;11.80;;;3.80;;
63259;SDS011;49390;51.380;0.098;2022-10-26T07:18:08;19.95;;;4.32;;
63259;SDS011;49390;51.380;0.098;2022-10-26T07:20:39;13.45;;;4.20;;
63259;SDS011;49390;51.380;0.098;2022-10-26T07:23:09;19.20;;;4.10;;
63259;SDS011;49390;51.380;0.098;2022-10-26T07:25:40;17.60;;;3.75;;
63259;SDS011;49390;51.380;0.098;2022-10-26T07:28:09;18.73;;;3.78;;
63259;SDS011;49390;51.380;0.098;2022-10-26T07:30:38;19.98;;;3.95;;
63259;SDS011;49390;51.380;0.098;2022-10-26T07:33:08;15.43;;;3.92;;
63259;SDS011;49390;51.380;0.098;2022-10-26T07:35:39;17.55;;;4.20;;
63259;SDS011;49390;51.380;0.098;2022-10-26T07:38:07;14.77;;;3.75;;
63259;SDS011;49390;51.380;0.098;2022-10-26T07:40:36;17.50;;;3.90;;
63259;SDS011;49390;51.380;0.098;2022-10-26T07:43:04;10.35;;;3.88;;
63259;SDS011;49390;51.380;0.098;2022-10-26T07:45:36;14.32;;;4.18;;
63259;SDS011;49390;51.380;0.098;2022-10-26T07:48:04;11.90;;;3.42;;
63259;SDS011;49390;51.380;0.098;2022-10-26T07:50:33;16.40;;;3.63;;
63259;SDS011;49390;51.380;0.098;2022-10-26T07:53:02;17.95;;;4.32;;
63259;SDS011;49390;51.380;0.098;2022-10-26T07:55:30;13.43;;;3.47;;
63259;SDS011;49390;51.380;0.098;2022-10-26T07:57:59;15.70;;;3.95;;
63259;SDS011;49390;51.380;0.098;2022-10-26T08:00:28;21.50;;;4.40;;
63259;SDS011;49390;51.380;0.098;2022-10-26T08:02:58;15.90;;;4.03;;
63259;SDS011;49390;51.380;0.098;2022-10-26T08:05:25;13.80;;;3.75;;
63259;SDS011;49390;51.380;0.098;2022-10-26T08:07:54;14.25;;;3.75;;
63259;SDS011;49390;51.380;0.098;2022-10-26T08:10:22;16.33;;;4.32;;
63259;SDS011;49390;51.380;0.098;2022-10-26T08:12:51;16.20;;;3.70;;
63259;SDS011;49390;51.380;0.098;2022-10-26T08:15:20;15.38;;;4.07;;
63259;SDS011;49390;51.380;0.098;2022-10-26T08:17:48;13.60;;;4.07;;
63259;SDS011;49390;51.380;0.098;2022-10-26T08:20:17;17.77;;;3.88;;
63259;SDS011;49390;51.380;0.098;2022-10-26T08:22:45;16.58;;;4.28;;
63259;SDS011;49390;51.380;0.098;2022-10-26T08:25:16;14.40;;;3.75;;
63259;SDS011;49390;51.380;0.098;2022-10-26T08:30:16;15.25;;;4.57;;
63259;SDS011;49390;51.380;0.098;2022-10-26T08:32:45;16.48;;;3.55;;
63259;SDS011;49390;51.380;0.098;2022-10-26T08:35:14;18.20;;;4.30;;
63259;SDS011;49390;51.380;0.098;2022-10-26T08:37:43;20.10;;;4.43;;
63259;SDS011;49390;51.380;0.098;2022-10-26T08:40:14;20.95;;;4.65;;
63259;SDS011;49390;51.380;0.098;2022-10-26T08:42:43;19.58;;;3.90;;
63259;SDS011;49390;51.380;0.098;2022-10-26T08:47:55;20.63;;;4.38;;
63259;SDS011;49390;51.380;0.098;2022-10-26T08:50:32;18.95;;;3.80;;
63259;SDS011;49390;51.380;0.098;2022-10-26T08:53:14;20.05;;;4.15;;
63259;SDS011;49390;51.380;0.098;2022-10-26T08:55:49;20.42;;;3.95;;
63259;SDS011;49390;51.380;0.098;2022-10-26T08:58:25;19.45;;;4.05;;
63259;SDS011;49390;51.380;0.098;2022-10-26T09:00:57;15.05;;;4.07;;
63259;SDS011;49390;51.380;0.098;2022-10-26T09:03:26;18.98;;;3.95;;
63259;SDS011;49390;51.380;0.098;2022-10-26T09:08:49;19.13;;;3.70;;
63259;SDS011;49390;51.380;0.098;2022-10-26T09:11:35;15.88;;;5.30;;
63259;SDS011;49390;51.380;0.098;2022-10-26T09:20:40;24.58;;;3.67;;
63259;SDS011;49390;51.380;0.098;2022-10-26T09:26:27;14.30;;;3.55;;
63259;SDS011;49390;51.380;0.098;2022-10-26T09:29:15;20.38;;;3.83;;
63259;SDS011;49390;51.380;0.098;2022-10-26T09:31:46;16.35;;;3.50;;
63259;SDS011;49390;51.380;0.098;2022-10-26T09:34:28;13.10;;;3.47;;
63259;SDS011;49390;51.380;0.098;2022-10-26T09:45:26;18.13;;;3.80;;
63259;SDS011;49390;51.380;0.098;2022-10-26T09:48:47;18.15;;;5.07;;
63259;SDS011;49390;51.380;0.098;2022-10-26T09:50:57;18.20;;;4.00;;
63259;SDS011;49390;51.380;0.098;2022-10-26T09:53:31;19.27;;;4.43;;
63259;SDS011;49390;51.380;0.098;2022-10-26T09:56:00;13.30;;;3.80;;
63259;SDS011;49390;51.380;0.098;2022-10-26T09:58:35;18.60;;;3.95;;
63259;SDS011;49390;51.380;0.098;2022-10-26T10:01:28;15.40;;;4.18;;
63259;SDS011;49390;51.380;0.098;2022-10-26T10:06:44;11.15;;;3.85;;
63259;SDS011;49390;51.380;0.098;2022-10-26T10:09:20;16.40;;;3.30;;
63259;SDS011;49390;51.380;0.098;2022-10-26T10:11:55;15.25;;;4.68;;
63259;SDS011;49390;51.380;0.098;2022-10-26T10:16:58;18.52;;;4.50;;
63259;SDS011;49390;51.380;0.098;2022-10-26T10:19:32;16.70;;;4.20;;
63259;SDS011;49390;51.380;0.098;2022-10-26T10:24:57;17.50;;;4.25;;
63259;SDS011;49390;51.380;0.098;2022-10-26T10:27:27;17.05;;;3.90;;
63259;SDS011;49390;51.380;0.098;2022-10-26T10:29:57;21.20;;;4.13;;
63259;SDS011;49390;51.380;0.098;2022-10-26T10:32:32;18.08;;;3.70;;
63259;SDS011;49390;51.380;0.098;2022-10-26T10:35:27;15.70;;;3.83;;
63259;SDS011;49390;51.380;0.098;2022-10-26T10:37:57;18.98;;;3.92;;
63259;SDS011;49390;51.380;0.098;2022-10-26T10:40:26;18.30;;;4.15;;
63259;SDS011;49390;51.380;0.098;2022-10-26T10:43:02;17.17;;;4.40;;
63259;SDS011;49390;51.380;0.098;2022-10-26T10:45:32;14.25;;;3.63;;
63259;SDS011;49390;51.380;0.098;2022-10-26T10:50:54;21.58;;;4.68;;
63259;SDS011;49390;51.380;0.098;2022-10-26T10:53:26;18.92;;;3.78;;
63259;SDS011;49390;51.380;0.098;2022-10-26T11:02:14;18.05;;;4.13;;
63259;SDS011;49390;51.380;0.098;2022-10-26T11:08:38;20.90;;;3.83;;
63259;SDS011;49390;51.380;0.098;2022-10-26T11:10:58;25.85;;;4.90;;
63259;SDS011;49390;51.380;0.098;2022-10-26T11:16:35;17.67;;;4.57;;
63259;SDS011;49390;51.380;0.098;2022-10-26T11:19:22;18.45;;;4.68;;
63259;SDS011;49390;51.380;0.098;2022-10-26T11:21:52;15.10;;;3.60;;
63259;SDS011;49390;51.380;0.098;2022-10-26T11:24:23;17.33;;;4.20;;
63259;SDS011;49390;51.380;0.098;2022-10-26T11:30:00;18.80;;;3.83;;
63259;SDS011;49390;51.380;0.098;2022-10-26T11:32:42;19.42;;;3.65;;
63259;SDS011;49390;51.380;0.098;2022-10-26T11:35:43;21.08;;;3.45;;
63259;SDS011;49390;51.380;0.098;2022-10-26T11:38:20;13.88;;;3.00;;
63259;SDS011;49390;51.380;0.098;2022-10-26T11:44:02;17.75;;;3.53;;
63259;SDS011;49390;51.380;0.098;2022-10-26T11:46:41;18.13;;;3.25;;
63259;SDS011;49390;51.380;0.098;2022-10-26T11:49:37;19.52;;;3.47;;
63259;SDS011;49390;51.380;0.098;2022-10-26T11:52:15;14.75;;;2.75;;
63259;SDS011;49390;51.380;0.098;2022-10-26T11:54:57;17.15;;;2.75;;
63259;SDS011;49390;51.380;0.098;2022-10-26T11:57:31;10.98;;;2.72;;
63259;SDS011;49390;51.380;0.098;2022-10-26T12:00:22;14.15;;;3.30;;
63259;SDS011;49390;51.380;0.098;2022-10-26T12:02:57;13.88;;;2.97;;
63259;SDS011;49390;51.380;0.098;2022-10-26T12:05:41;17.40;;;3.50;;
63259;SDS011;49390;51.380;0.098;2022-10-26T12:08:17;16.08;;;3.60;;
63259;SDS011;49390;51.380;0.098;2022-10-26T12:17:06;17.80;;;2.95;;
63259;SDS011;49390;51.380;0.098;2022-10-26T12:19:42;12.35;;;3.47;;
63259;SDS011;49390;51.380;0.098;2022-10-26T12:22:29;20.05;;;3.95;;
63259;SDS011;49390;51.380;0.098;2022-10-26T12:25:05;13.85;;;3.15;;
63259;SDS011;49390;51.380;0.098;2022-10-26T12:32:51;14.25;;;3.80;;
63259;SDS011;49390;51.380;0.098;2022-10-26T12:35:31;19.83;;;4.13;;
63259;SDS011;49390;51.380;0.098;2022-10-26T12:43:31;17.65;;;3.50;;
63259;SDS011;49390;51.380;0.098;2022-10-26T12:46:44;17.40;;;3.53;;
63259;SDS011;49390;51.380;0.098;2022-10-26T12:48:52;19.75;;;3.95;;
63259;SDS011;49390;51.380;0.098;2022-10-26T13:00:16;17.70;;;3.70;;
63259;SDS011;49390;51.380;0.098;2022-10-26T13:08:11;15.15;;;4.65;;
63259;SDS011;49390;51.380;0.098;2022-10-26T13:10:44;19.33;;;3.40;;
63259;SDS011;49390;51.380;0.098;2022-10-26T13:13:28;16.45;;;3.60;;
63259;SDS011;49390;51.380;0.098;2022-10-26T13:15:59;21.65;;;3.97;;
63259;SDS011;49390;51.380;0.098;2022-10-26T13:18:28;13.98;;;2.85;;
63259;SDS011;49390;51.380;0.098;2022-10-26T13:23:36;20.20;;;3.40;;
63259;SDS011;49390;51.380;0.098;2022-10-26T13:26:19;20.38;;;3.92;;
63259;SDS011;49390;51.380;0.098;2022-10-26T13:28:50;13.95;;;2.92;;
63259;SDS011;49390;51.380;0.098;2022-10-26T13:34:17;25.42;;;4.00;;
63259;SDS011;49390;51.380;0.098;2022-10-26T13:37:02;21.48;;;4.13;;
63259;SDS011;49390;51.380;0.098;2022-10-26T13:39:46;21.15;;;3.70;;
63259;SDS011;49390;51.380;0.098;2022-10-26T13:42:20;18.40;;;3.58;;
63259;SDS011;49390;51.380;0.098;2022-10-26T13:44:55;17.58;;;3.95;;
63259;SDS011;49390;51.380;0.098;2022-10-26T13:47:26;19.70;;;3.53;;
63259;SDS011;49390;51.380;0.098;2022-10-26T13:50:06;18.65;;;4.15;;
63259;SDS011;49390;51.380;0.098;2022-10-26T13:52:42;19.20;;;3.28;;
63259;SDS011;49390;51.380;0.098;2022-10-26T13:58:10;17.33;;;3.03;;
63259;SDS011;49390;51.380;0.098;2022-10-26T14:00:59;20.70;;;3.67;;
63259;SDS011;49390;51.380;0.098;2022-10-26T14:03:28;18.95;;;3.20;;
63259;SDS011;49390;51.380;0.098;2022-10-26T14:05:56;17.80;;;3.33;;
63259;SDS011;49390;51.380;0.098;2022-10-26T14:08:24;14.77;;;3.75;;
63259;SDS011;49390;51.380;0.098;2022-10-26T14:10:54;20.67;;;3.53;;
63259;SDS011;49390;51.380;0.098;2022-10-26T14:13:26;20.42;;;3.70;;
63259;SDS011;49390;51.380;0.098;2022-10-26T14:15:55;21.02;;;3.50;;
63259;SDS011;49390;51.380;0.098;2022-10-26T14:18:25;22.42;;;3.80;;
63259;SDS011;49390;51.380;0.098;2022-10-26T14:21:06;19.70;;;4.28;;
63259;SDS011;49390;51.380;0.098;2022-10-26T14:26:19;17.30;;;3.65;;
63259;SDS011;49390;51.380;0.098;2022-10-26T14:28:58;17.85;;;3.40;;
63259;SDS011;49390;51.380;0.098;2022-10-26T14:31:28;21.20;;;3.95;;
63259;SDS011;49390;51.380;0.098;2022-10-26T14:33:59;18.35;;;3.40;;
63259;SDS011;49390;51.380;0.098;2022-10-26T14:36:37;16.30;;;3.22;;
63259;SDS011;49390;51.380;0.098;2022-10-26T14:39:25;24.15;;;4.60;;
63259;SDS011;49390;51.380;0.098;2022-10-26T14:42:09;21.67;;;3.88;;
63259;SDS011;49390;51.380;0.098;2022-10-26T14:44:49;17.92;;;3.60;;
63259;SDS011;49390;51.380;0.098;2022-10-26T14:47:33;15.10;;;3.80;;
63259;SDS011;49390;51.380;0.098;2022-10-26T14:50:03;18.85;;;4.20;;
63259;SDS011;49390;51.380;0.098;2022-10-26T14:52:31;18.25;;;3.75;;
63259;SDS011;49390;51.380;0.098;2022-10-26T14:55:03;19.42;;;3.30;;
63259;SDS011;49390;51.380;0.098;2022-10-26T14:57:42;20.80;;;4.55;;
63259;SDS011;49390;51.380;0.098;2022-10-26T15:02:48;17.10;;;3.70;;
63259;SDS011;49390;51.380;0.098;2022-10-26T15:07:53;24.30;;;4.70;;
63259;SDS011;49390;51.380;0.098;2022-10-26T15:15:52;25.55;;;3.72;;
63259;SDS011;49390;51.380;0.098;2022-10-26T15:18:28;21.23;;;4.75;;
63259;SDS011;49390;51.380;0.098;2022-10-26T15:20:59;20.17;;;4.07;;
63259;SDS011;49390;51.380;0.098;2022-10-26T15:23:28;20.23;;;3.70;;
63259;SDS011;49390;51.380;0.098;2022-10-26T15:25:58;19.45;;;3.55;;
63259;SDS011;49390;51.380;0.098;2022-10-26T15:28:28;19.00;;;5.10;;
63259;SDS011;49390;51.380;0.098;2022-10-26T15:33:38;18.05;;;4.40;;
63259;SDS011;49390;51.380;0.098;2022-10-26T15:36:25;23.77;;;3.95;;
63259;SDS011;49390;51.380;0.098;2022-10-26T15:38:54;17.50;;;4.00;;
63259;SDS011;49390;51.380;0.098;2022-10-26T15:41:28;17.70;;;3.83;;
63259;SDS011;49390;51.380;0.098;2022-10-26T15:43:58;19.55;;;3.90;;
63259;SDS011;49390;51.380;0.098;2022-10-26T15:46:33;13.63;;;3.78;;
63259;SDS011;49390;51.380;0.098;2022-10-26T15:49:05;19.27;;;4.97;;
63259;SDS011;49390;51.380;0.098;2022-10-26T15:51:35;15.32;;;3.75;;
63259;SDS011;49390;51.380;0.098;2022-10-26T15:54:04;19.35;;;4.88;;
63259;SDS011;49390;51.380;0.098;2022-10-26T15:56:35;15.38;;;3.85;;
63259;SDS011;49390;51.380;0.098;2022-10-26T15:59:17;22.50;;;4.03;;
63259;SDS011;49390;51.380;0.098;2022-10-26T16:01:47;22.25;;;4.45;;
63259;SDS011;49390;51.380;0.098;2022-10-26T16:04:18;13.73;;;3.53;;
63259;SDS011;49390;51.380;0.098;2022-10-26T16:06:46;17.35;;;3.78;;
63259;SDS011;49390;51.380;0.098;2022-10-26T16:09:17;18.00;;;3.45;;
63259;SDS011;49390;51.380;0.098;2022-10-26T16:12:13;23.92;;;3.90;;
63259;SDS011;49390;51.380;0.098;2022-10-26T16:14:41;22.52;;;3.72;;
63259;SDS011;49390;51.380;0.098;2022-10-26T16:17:31;29.33;;;4.65;;
63259;SDS011;49390;51.380;0.098;2022-10-26T16:20:00;23.08;;;3.60;;
63259;SDS011;49390;51.380;0.098;2022-10-26T16:22:34;20.73;;;3.88;;
63259;SDS011;49390;51.380;0.098;2022-10-26T16:25:05;20.17;;;3.90;;
63259;SDS011;49390;51.380;0.098;2022-10-26T16:27:34;20.15;;;3.90;;
63259;SDS011;49390;51.380;0.098;2022-10-26T16:30:02;18.55;;;3.83;;
63259;SDS011;49390;51.380;0.098;2022-10-26T16:32:31;20.40;;;4.38;;
63259;SDS011;49390;51.380;0.098;2022-10-26T16:34:59;31.70;;;4.95;;
63259;SDS011;49390;51.380;0.098;2022-10-26T16:37:27;16.17;;;3.58;;
63259;SDS011;49390;51.380;0.098;2022-10-26T16:39:58;20.77;;;4.30;;
63259;SDS011;49390;51.380;0.098;2022-10-26T16:42:26;15.70;;;4.40;;
63259;SDS011;49390;51.380;0.098;2022-10-26T16:44:55;23.52;;;4.50;;
63259;SDS011;49390;51.380;0.098;2022-10-26T16:47:31;17.02;;;4.95;;
63259;SDS011;49390;51.380;0.098;2022-10-26T16:50:04;27.27;;;4.38;;
63259;SDS011;49390;51.380;0.098;2022-10-26T16:52:36;23.13;;;4.28;;
63259;SDS011;49390;51.380;0.098;2022-10-26T16:55:05;19.30;;;3.55;;
63259;SDS011;49390;51.380;0.098;2022-10-26T16:57:35;19.35;;;3.63;;
63259;SDS011;49390;51.380;0.098;2022-10-26T17:00:04;23.10;;;4.10;;
63259;SDS011;49390;51.380;0.098;2022-10-26T17:02:33;20.48;;;3.97;;
63259;SDS011;49390;51.380;0.098;2022-10-26T17:05:02;23.15;;;4.05;;
63259;SDS011;49390;51.380;0.098;2022-10-26T17:07:34;25.27;;;4.07;;
63259;SDS011;49390;51.380;0.098;2022-10-26T17:10:03;23.80;;;4.82;;
63259;SDS011;49390;51.380;0.098;2022-10-26T17:12:32;17.35;;;3.70;;
63259;SDS011;49390;51.380;0.098;2022-10-26T17:15:00;22.83;;;4.63;;
63259;SDS011;49390;51.380;0.098;2022-10-26T17:17:29;23.13;;;4.30;;
63259;SDS011;49390;51.380;0.098;2022-10-26T17:19:57;28.52;;;4.65;;
63259;SDS011;49390;51.380;0.098;2022-10-26T17:22:25;22.30;;;4.47;;
63259;SDS011;49390;51.380;0.098;2022-10-26T17:24:54;23.83;;;4.57;;
63259;SDS011;49390;51.380;0.098;2022-10-26T17:27:22;18.05;;;4.38;;
63259;SDS011;49390;51.380;0.098;2022-10-26T17:29:50;21.85;;;4.82;;
63259;SDS011;49390;51.380;0.098;2022-10-26T17:32:18;29.25;;;5.32;;
63259;SDS011;49390;51.380;0.098;2022-10-26T17:34:49;24.15;;;6.53;;
63259;SDS011;49390;51.380;0.098;2022-10-26T17:37:17;20.60;;;5.38;;